createdAt,value
2023-05-01T00:00:18.535Z, 34.11
2023-05-01T00:01:18.502Z, 34.14
2023-05-01T00:02:18.727Z, 34.16
2023-05-01T00:03:18.687Z, 34.12
2023-05-01T00:04:18.643Z, 34.11
2023-05-01T00:05:18.533Z, 34.11
2023-05-01T00:06:18.577Z, 34.08
2023-05-01T00:07:18.628Z, 34.09
2023-05-01T00:08:18.607Z, 34.06
2023-05-01T00:09:18.642Z, 34.06
2023-05-01T00:10:18.623Z, 34.03
2023-05-01T00:11:18.605Z, 34.03
2023-05-01T00:12:18.615Z, 34.03
2023-05-01T00:13:18.614Z, 34.02
2023-05-01T00:14:18.614Z, 33.99
2023-05-01T00:15:18.643Z, 33.96
2023-05-01T00:16:18.767Z, 33.96
2023-05-01T00:17:18.708Z, 33.94
2023-05-01T00:18:18.726Z, 33.92
2023-05-01T00:19:18.702Z, 33.93
2023-05-01T00:20:18.759Z, 33.95
2023-05-01T00:21:18.714Z, 33.96
2023-05-01T00:22:18.772Z, 33.93
2023-05-01T00:23:18.767Z, 33.96
2023-05-01T00:24:18.793Z, 33.95
2023-05-01T00:25:18.785Z, 33.92
2023-05-01T00:26:18.794Z, 33.89
2023-05-01T00:27:18.788Z, 33.92
2023-05-01T00:28:18.814Z, 33.92
2023-05-01T00:29:18.887Z, 33.89
2023-05-01T00:30:18.876Z, 33.91
2023-05-01T00:31:18.923Z, 33.89
2023-05-01T00:32:19.114Z, 33.89
2023-05-01T00:33:18.885Z, 33.87
2023-05-01T00:34:18.967Z, 33.85
2023-05-01T00:35:18.925Z, 33.83
2023-05-01T00:36:18.943Z, 33.83
2023-05-01T00:37:18.937Z, 33.83
2023-05-01T00:38:18.990Z, 33.83
2023-05-01T00:39:18.968Z, 33.80
2023-05-01T00:40:19.008Z, 33.79
2023-05-01T00:41:18.985Z, 33.76
2023-05-01T00:42:18.988Z, 33.78
2023-05-01T00:43:19.053Z, 33.77
2023-05-01T00:44:19.017Z, 33.73
2023-05-01T00:45:19.050Z, 33.74
2023-05-01T00:46:19.077Z, 33.74
2023-05-01T00:47:19.084Z, 33.77
2023-05-01T00:48:19.058Z, 33.76
2023-05-01T00:49:19.061Z, 33.73
2023-05-01T00:50:19.086Z, 33.72
2023-05-01T00:51:19.102Z, 33.67
2023-05-01T00:52:19.169Z, 33.65
2023-05-01T00:53:19.147Z, 33.66
2023-05-01T00:54:19.188Z, 33.64
2023-05-01T00:55:19.207Z, 33.62
2023-05-01T00:56:19.180Z, 33.62
2023-05-01T00:57:19.179Z, 33.60
2023-05-01T00:58:19.181Z, 33.61
2023-05-01T00:59:19.195Z, 33.61
2023-05-01T01:00:19.192Z, 33.63
2023-05-01T01:01:19.307Z, 33.62
2023-05-01T01:02:19.237Z, 33.57
2023-05-01T01:03:19.230Z, 33.58
2023-05-01T01:04:19.272Z, 33.57
2023-05-01T01:05:19.311Z, 33.54
2023-05-01T01:06:19.316Z, 33.58
2023-05-01T01:07:19.329Z, 33.58
2023-05-01T01:08:19.330Z, 33.61
2023-05-01T01:09:19.321Z, 33.57
2023-05-01T01:10:19.308Z, 33.57
2023-05-01T01:11:19.319Z, 33.55
2023-05-01T01:12:19.328Z, 33.49
2023-05-01T01:13:19.352Z, 33.45
2023-05-01T01:14:19.358Z, 33.46
2023-05-01T01:15:19.350Z, 33.47
2023-05-01T01:16:19.484Z, 33.48
2023-05-01T01:17:19.418Z, 33.47
2023-05-01T01:18:19.421Z, 33.46
2023-05-01T01:19:19.441Z, 33.44
2023-05-01T01:20:19.509Z, 33.42
2023-05-01T01:21:19.469Z, 33.39
2023-05-01T01:22:19.470Z, 33.37
2023-05-01T01:23:19.799Z, 33.46
2023-05-01T01:24:19.581Z, 33.45
2023-05-01T01:25:19.587Z, 33.43
2023-05-01T01:26:19.542Z, 33.40
2023-05-01T01:27:19.580Z, 33.41
2023-05-01T01:28:19.559Z, 33.39
2023-05-01T01:29:19.619Z, 33.36
2023-05-01T01:30:19.592Z, 33.37
2023-05-01T01:31:19.618Z, 33.40
2023-05-01T01:32:19.595Z, 33.39
2023-05-01T01:33:19.588Z, 33.36
2023-05-01T01:34:19.685Z, 33.34
2023-05-01T01:35:19.659Z, 33.30
2023-05-01T01:36:19.686Z, 33.31
2023-05-01T01:37:19.670Z, 33.33
2023-05-01T01:38:19.707Z, 33.33
2023-05-01T01:39:19.671Z, 33.33
2023-05-01T01:40:19.697Z, 33.33
2023-05-01T01:41:19.693Z, 33.31
2023-05-01T01:42:19.708Z, 33.30
2023-05-01T01:43:19.697Z, 33.31
2023-05-01T01:44:19.727Z, 33.31
2023-05-01T01:45:19.739Z, 33.29
2023-05-01T01:46:19.813Z, 33.28
2023-05-01T01:47:19.867Z, 33.29
2023-05-01T01:48:19.815Z, 33.28
2023-05-01T01:49:20.975Z, 33.22
2023-05-01T01:50:19.835Z, 33.19
2023-05-01T01:51:19.883Z, 33.22
2023-05-01T01:52:19.864Z, 33.22
2023-05-01T01:53:19.857Z, 33.18
2023-05-01T01:54:19.859Z, 33.20
2023-05-01T01:55:19.873Z, 33.19
2023-05-01T01:56:19.878Z, 33.15
2023-05-01T01:57:19.891Z, 33.13
2023-05-01T01:58:19.970Z, 33.15
2023-05-01T01:59:19.949Z, 33.15
2023-05-01T02:00:19.991Z, 33.11
2023-05-01T02:01:20.005Z, 33.11
2023-05-01T02:02:19.985Z, 33.15
2023-05-01T02:03:20.058Z, 33.16
2023-05-01T02:04:20.111Z, 33.17
2023-05-01T02:05:19.979Z, 33.18
2023-05-01T02:06:20.024Z, 33.15
2023-05-01T02:07:20.063Z, 33.17
2023-05-01T02:08:20.110Z, 33.15
2023-05-01T02:09:20.063Z, 33.12
2023-05-01T02:10:20.050Z, 33.13
2023-05-01T02:11:20.093Z, 33.12
2023-05-01T02:12:20.072Z, 33.09
2023-05-01T02:13:20.075Z, 33.02
2023-05-01T02:14:20.148Z, 33.02
2023-05-01T02:15:20.148Z, 33.04
2023-05-01T02:16:20.215Z, 33.08
2023-05-01T02:17:20.167Z, 33.08
2023-05-01T02:18:20.192Z, 33.03
2023-05-01T02:19:20.188Z, 33.02
2023-05-01T02:20:20.206Z, 33.03
2023-05-01T02:21:20.188Z, 33.04
2023-05-01T02:22:20.188Z, 33.01
2023-05-01T02:23:20.249Z, 32.99
2023-05-01T02:24:20.201Z, 33.01
2023-05-01T02:25:20.274Z, 33.00
2023-05-01T02:26:20.257Z, 33.02
2023-05-01T02:27:20.252Z, 33.01
2023-05-01T02:28:20.304Z, 33.03
2023-05-01T02:29:20.260Z, 32.99
2023-05-01T02:30:20.325Z, 32.95
2023-05-01T02:31:20.300Z, 32.94
2023-05-01T02:32:20.331Z, 32.95
2023-05-01T02:33:20.294Z, 32.96
2023-05-01T02:34:20.302Z, 32.97
2023-05-01T02:35:20.343Z, 32.95
2023-05-01T02:36:20.350Z, 32.93
2023-05-01T02:37:20.429Z, 32.91
2023-05-01T02:38:20.404Z, 32.87
2023-05-01T02:39:20.415Z, 32.84
2023-05-01T02:40:20.418Z, 32.82
2023-05-01T02:41:20.411Z, 32.81
2023-05-01T02:42:20.479Z, 32.79
2023-05-01T02:43:20.476Z, 32.81
2023-05-01T02:44:20.468Z, 32.83
2023-05-01T02:45:20.476Z, 32.87
2023-05-01T02:46:20.556Z, 32.83
2023-05-01T02:47:20.694Z, 32.80
2023-05-01T02:48:20.539Z, 32.81
2023-05-01T02:49:20.558Z, 32.84
2023-05-01T02:50:20.554Z, 32.82
2023-05-01T02:51:20.556Z, 32.76
2023-05-01T02:52:20.544Z, 32.76
2023-05-01T02:53:20.553Z, 32.77
2023-05-01T02:54:20.595Z, 32.75
2023-05-01T02:55:20.609Z, 32.71
2023-05-01T02:56:20.584Z, 32.69
2023-05-01T02:57:20.577Z, 32.69
2023-05-01T02:58:20.677Z, 32.68
2023-05-01T02:59:20.650Z, 32.67
2023-05-01T03:00:20.656Z, 32.67
2023-05-01T03:01:20.756Z, 32.62
2023-05-01T03:02:20.647Z, 32.62
2023-05-01T03:03:20.851Z, 32.60
2023-05-01T03:04:20.749Z, 32.65
2023-05-01T03:05:20.781Z, 32.65
2023-05-01T03:06:20.788Z, 32.64
2023-05-01T03:07:20.806Z, 32.64
2023-05-01T03:08:20.767Z, 32.63
2023-05-01T03:09:20.779Z, 32.62
2023-05-01T03:10:20.837Z, 32.63
2023-05-01T03:11:20.814Z, 32.60
2023-05-01T03:12:20.833Z, 32.63
2023-05-01T03:13:20.813Z, 32.61
2023-05-01T03:14:20.873Z, 32.63
2023-05-01T03:15:20.852Z, 32.64
2023-05-01T03:16:20.935Z, 32.61
2023-05-01T03:17:20.875Z, 32.61
2023-05-01T03:18:20.877Z, 32.57
2023-05-01T03:19:20.863Z, 32.58
2023-05-01T03:20:20.863Z, 32.58
2023-05-01T03:21:20.960Z, 32.58
2023-05-01T03:22:20.902Z, 32.55
2023-05-01T03:23:20.995Z, 32.52
2023-05-01T03:24:20.974Z, 32.53
2023-05-01T03:25:21.002Z, 32.50
2023-05-01T03:26:20.993Z, 32.51
2023-05-01T03:27:21.008Z, 32.48
2023-05-01T03:28:21.018Z, 32.47
2023-05-01T03:29:20.999Z, 32.45
2023-05-01T03:30:21.012Z, 32.44
2023-05-01T03:31:21.014Z, 32.71
2023-05-01T03:32:21.130Z, 33.67
2023-05-01T03:33:21.070Z, 35.66
2023-05-01T03:34:21.098Z, 37.02
2023-05-01T03:35:21.117Z, 37.78
2023-05-01T03:36:21.148Z, 38.30
2023-05-01T03:37:21.108Z, 38.67
2023-05-01T03:38:21.210Z, 39.01
2023-05-01T03:39:21.168Z, 39.28
2023-05-01T03:40:21.163Z, 39.66
2023-05-01T03:41:21.160Z, 39.96
2023-05-01T03:42:21.159Z, 40.22
2023-05-01T03:43:21.196Z, 40.51
2023-05-01T03:44:21.151Z, 40.87
2023-05-01T03:45:21.214Z, 41.19
2023-05-01T03:46:21.312Z, 41.53
2023-05-01T03:47:21.191Z, 41.87
2023-05-01T03:48:21.230Z, 42.16
2023-05-01T03:49:21.266Z, 42.42
2023-05-01T03:50:21.247Z, 42.67
2023-05-01T03:51:21.262Z, 42.88
2023-05-01T03:52:21.322Z, 43.05
2023-05-01T03:53:21.280Z, 43.22
2023-05-01T03:54:21.372Z, 43.35
2023-05-01T03:55:21.345Z, 43.52
2023-05-01T03:56:21.390Z, 43.65
2023-05-01T03:57:21.363Z, 43.72
2023-05-01T03:58:21.398Z, 43.81
2023-05-01T03:59:21.375Z, 43.92
2023-05-01T04:00:21.383Z, 43.99
2023-05-01T04:01:21.386Z, 44.08
2023-05-01T04:02:21.509Z, 44.14
2023-05-01T04:03:21.564Z, 44.14
2023-05-01T04:04:21.450Z, 44.21
2023-05-01T04:05:21.530Z, 44.20
2023-05-01T04:06:21.506Z, 44.24
2023-05-01T04:07:21.472Z, 44.26
2023-05-01T04:08:21.521Z, 44.23
2023-05-01T04:09:21.498Z, 44.16
2023-05-01T04:10:21.508Z, 44.11
2023-05-01T04:11:21.504Z, 44.03
2023-05-01T04:12:21.567Z, 43.91
2023-05-01T04:13:21.556Z, 43.86
2023-05-01T04:14:21.551Z, 43.90
2023-05-01T04:15:21.549Z, 43.99
2023-05-01T04:16:21.578Z, 44.06
2023-05-01T04:17:21.580Z, 44.18
2023-05-01T04:18:21.740Z, 44.28
2023-05-01T04:19:21.637Z, 44.29
2023-05-01T04:20:21.616Z, 44.27
2023-05-01T04:21:21.620Z, 44.24
2023-05-01T04:22:21.631Z, 44.21
2023-05-01T04:23:23.200Z, 44.10
2023-05-01T04:24:21.686Z, 43.99
2023-05-01T04:25:21.673Z, 43.79
2023-05-01T04:26:21.732Z, 43.50
2023-05-01T04:27:21.705Z, 43.30
2023-05-01T04:28:21.711Z, 43.16
2023-05-01T04:29:21.811Z, 43.06
2023-05-01T04:30:21.765Z, 42.89
2023-05-01T04:31:21.854Z, 42.84
2023-05-01T04:32:21.832Z, 42.72
2023-05-01T04:33:21.822Z, 42.67
2023-05-01T04:34:21.793Z, 42.59
2023-05-01T04:35:21.833Z, 42.62
2023-05-01T04:36:21.811Z, 42.86
2023-05-01T04:37:21.822Z, 43.15
2023-05-01T04:38:21.809Z, 43.18
2023-05-01T04:39:21.832Z, 43.12
2023-05-01T04:40:21.942Z, 43.04
2023-05-01T04:41:21.892Z, 42.89
2023-05-01T04:42:21.886Z, 42.85
2023-05-01T04:43:21.945Z, 42.88
2023-05-01T04:44:21.903Z, 42.90
2023-05-01T04:45:21.943Z, 42.87
2023-05-01T04:46:21.986Z, 42.86
2023-05-01T04:47:21.922Z, 42.84
2023-05-01T04:48:22.002Z, 42.85
2023-05-01T04:49:21.951Z, 42.87
2023-05-01T04:50:22.034Z, 42.81
2023-05-01T04:51:21.991Z, 42.80
2023-05-01T04:52:21.998Z, 42.80
2023-05-01T04:53:22.114Z, 42.76
2023-05-01T04:54:22.015Z, 42.72
2023-05-01T04:55:22.089Z, 42.71
2023-05-01T04:56:22.067Z, 42.71
2023-05-01T04:57:22.060Z, 42.68
2023-05-01T04:58:22.070Z, 42.62
2023-05-01T04:59:22.066Z, 42.63
2023-05-01T05:00:22.089Z, 42.60
2023-05-01T05:01:22.125Z, 42.56
2023-05-01T05:02:22.101Z, 42.53
2023-05-01T05:03:22.177Z, 42.50
2023-05-01T05:04:22.166Z, 42.48
2023-05-01T05:05:22.130Z, 42.46
2023-05-01T05:06:22.208Z, 42.42
2023-05-01T05:07:22.151Z, 42.42
2023-05-01T05:08:22.170Z, 42.37
2023-05-01T05:09:22.149Z, 42.37
2023-05-01T05:10:22.172Z, 42.37
2023-05-01T05:11:22.264Z, 42.31
2023-05-01T05:12:22.230Z, 42.28
2023-05-01T05:13:22.267Z, 42.21
2023-05-01T05:14:22.231Z, 42.20
2023-05-01T05:15:22.231Z, 42.17
2023-05-01T05:16:22.250Z, 42.06
2023-05-01T05:17:22.271Z, 41.38
2023-05-01T05:18:22.335Z, 41.24
2023-05-01T05:19:22.281Z, 41.23
2023-05-01T05:20:22.333Z, 41.28
2023-05-01T05:21:22.313Z, 41.32
2023-05-01T05:22:22.314Z, 41.33
2023-05-01T05:23:22.345Z, 41.33
2023-05-01T05:24:22.336Z, 41.31
2023-05-01T05:25:22.461Z, 41.34
2023-05-01T05:26:22.381Z, 41.27
2023-05-01T05:27:22.439Z, 41.29
2023-05-01T05:28:22.421Z, 41.27
2023-05-01T05:29:22.455Z, 41.26
2023-05-01T05:30:22.435Z, 41.22
2023-05-01T05:31:22.509Z, 41.24
2023-05-01T05:32:22.690Z, 41.20
2023-05-01T05:33:22.474Z, 41.16
2023-05-01T05:34:22.459Z, 41.10
2023-05-01T05:35:22.482Z, 41.13
2023-05-01T05:36:22.572Z, 41.14
2023-05-01T05:37:22.552Z, 41.14
2023-05-01T05:38:22.558Z, 41.09
2023-05-01T05:39:22.540Z, 41.03
2023-05-01T05:40:22.592Z, 40.99
2023-05-01T05:41:22.563Z, 40.96
2023-05-01T05:42:22.672Z, 40.91
2023-05-01T05:43:22.614Z, 40.91
2023-05-01T05:44:22.608Z, 40.92
2023-05-01T05:45:22.611Z, 40.86
2023-05-01T05:46:22.679Z, 40.87
2023-05-01T05:47:22.695Z, 40.84
2023-05-01T05:48:22.770Z, 40.88
2023-05-01T05:49:22.661Z, 40.86
2023-05-01T05:50:22.668Z, 40.77
2023-05-01T05:51:22.676Z, 40.77
2023-05-01T05:52:22.694Z, 40.70
2023-05-01T05:53:25.004Z, 40.71
2023-05-01T05:54:22.710Z, 40.67
2023-05-01T05:55:22.765Z, 40.60
2023-05-01T05:56:22.745Z, 40.68
2023-05-01T05:57:22.741Z, 40.57
2023-05-01T05:58:22.813Z, 40.50
2023-05-01T05:59:22.794Z, 40.51
2023-05-01T06:00:22.802Z, 40.47
2023-05-01T06:01:22.854Z, 40.50
2023-05-01T06:02:22.983Z, 40.48
2023-05-01T06:03:23.220Z, 40.46
2023-05-01T06:04:22.865Z, 40.41
2023-05-01T06:05:22.940Z, 40.34
2023-05-01T06:06:22.931Z, 40.36
2023-05-01T06:07:22.870Z, 40.36
2023-05-01T06:08:22.892Z, 40.35
2023-05-01T06:09:22.885Z, 40.33
2023-05-01T06:10:22.972Z, 40.29
2023-05-01T06:11:22.944Z, 40.27
2023-05-01T06:12:22.987Z, 40.25
2023-05-01T06:13:22.983Z, 40.23
2023-05-01T06:14:22.960Z, 40.25
2023-05-01T06:15:22.970Z, 40.21
2023-05-01T06:16:23.012Z, 40.17
2023-05-01T06:17:22.967Z, 40.21
2023-05-01T06:18:22.988Z, 40.14
2023-05-01T06:19:23.044Z, 40.20
2023-05-01T06:20:23.016Z, 40.21
2023-05-01T06:21:23.012Z, 40.23
2023-05-01T06:22:23.019Z, 40.20
2023-05-01T06:23:23.022Z, 40.14
2023-05-01T06:24:23.103Z, 40.11
2023-05-01T06:25:23.073Z, 40.09
2023-05-01T06:26:23.154Z, 40.02
2023-05-01T06:27:23.114Z, 40.03
2023-05-01T06:28:23.141Z, 40.04
2023-05-01T06:29:23.132Z, 39.97
2023-05-01T06:30:23.125Z, 39.97
2023-05-01T06:31:23.188Z, 39.97
2023-05-01T06:32:23.308Z, 39.91
2023-05-01T06:33:23.164Z, 39.87
2023-05-01T06:34:23.188Z, 39.83
2023-05-01T06:35:23.176Z, 39.81
2023-05-01T06:36:23.184Z, 39.82
2023-05-01T06:37:23.201Z, 39.85
2023-05-01T06:38:24.465Z, 39.76
2023-05-01T06:39:23.279Z, 39.70
2023-05-01T06:40:23.261Z, 39.69
2023-05-01T06:41:23.322Z, 39.66
2023-05-01T06:42:23.305Z, 39.63
2023-05-01T06:43:23.283Z, 39.60
2023-05-01T06:44:23.286Z, 39.60
2023-05-01T06:45:23.289Z, 39.62
2023-05-01T06:46:23.397Z, 39.58
2023-05-01T06:47:23.378Z, 39.60
2023-05-01T06:48:23.383Z, 39.54
2023-05-01T06:49:23.358Z, 39.52
2023-05-01T06:50:23.355Z, 39.49
2023-05-01T06:51:23.361Z, 39.48
2023-05-01T06:52:23.410Z, 39.46
2023-05-01T06:53:23.427Z, 39.48
2023-05-01T06:54:23.406Z, 39.42
2023-05-01T06:55:23.501Z, 39.41
2023-05-01T06:56:23.464Z, 39.37
2023-05-01T06:57:23.524Z, 39.40
2023-05-01T06:58:24.568Z, 39.39
2023-05-01T06:59:23.552Z, 39.34
2023-05-01T07:00:23.521Z, 39.31
2023-05-01T07:01:23.643Z, 39.29
2023-05-01T07:02:23.596Z, 39.28
2023-05-01T07:03:23.593Z, 39.29
2023-05-01T07:04:23.570Z, 39.33
2023-05-01T07:05:23.575Z, 39.31
2023-05-01T07:06:23.629Z, 39.25
2023-05-01T07:07:23.586Z, 39.22
2023-05-01T07:08:23.623Z, 39.23
2023-05-01T07:09:23.591Z, 39.17
2023-05-01T07:10:23.680Z, 39.12
2023-05-01T07:11:23.653Z, 39.16
2023-05-01T07:12:23.696Z, 39.13
2023-05-01T07:13:23.683Z, 39.08
2023-05-01T07:14:23.710Z, 39.06
2023-05-01T07:15:23.705Z, 39.08
2023-05-01T07:16:23.737Z, 39.08
2023-05-01T07:17:23.755Z, 39.05
2023-05-01T07:18:23.713Z, 39.09
2023-05-01T07:19:23.808Z, 41.35
2023-05-01T07:20:23.778Z, 45.12
2023-05-01T07:21:23.842Z, 49.66
2023-05-01T07:22:23.803Z, 54.60
2023-05-01T07:23:23.797Z, 59.33
2023-05-01T07:24:23.823Z, 69.71
2023-05-01T07:25:23.805Z, 58.56
2023-05-01T07:26:23.872Z, 54.07
2023-05-01T07:27:23.865Z, 54.70
2023-05-01T07:28:23.909Z, 56.37
2023-05-01T07:29:23.866Z, 59.20
2023-05-01T07:30:23.920Z, 68.87
2023-05-01T07:31:23.967Z, 63.95
2023-05-01T07:32:23.946Z, 57.04
2023-05-01T07:33:23.953Z, 55.44
2023-05-01T07:34:23.919Z, 56.34
2023-05-01T07:35:23.926Z, 57.10
2023-05-01T07:36:23.944Z, 57.75
2023-05-01T07:37:23.968Z, 58.19
2023-05-01T07:38:24.023Z, 58.41
2023-05-01T07:39:24.057Z, 58.63
2023-05-01T07:40:24.043Z, 58.71
2023-05-01T07:41:24.107Z, 58.75
2023-05-01T07:42:24.029Z, 58.88
2023-05-01T07:43:24.048Z, 58.82
2023-05-01T07:44:24.124Z, 58.76
2023-05-01T07:45:24.113Z, 58.74
2023-05-01T07:46:24.170Z, 58.62
2023-05-01T07:47:24.135Z, 58.60
2023-05-01T07:48:24.107Z, 58.50
2023-05-01T07:49:24.170Z, 58.41
2023-05-01T07:50:24.198Z, 58.25
2023-05-01T07:51:24.158Z, 58.10
2023-05-01T07:52:24.150Z, 57.97
2023-05-01T07:53:24.166Z, 57.87
2023-05-01T07:54:24.232Z, 57.73
2023-05-01T07:55:24.206Z, 57.70
2023-05-01T07:56:24.261Z, 57.58
2023-05-01T07:57:24.228Z, 57.50
2023-05-01T07:58:24.272Z, 57.39
2023-05-01T07:59:24.246Z, 57.27
2023-05-01T08:00:24.300Z, 57.07
2023-05-01T08:01:24.261Z, 56.94
2023-05-01T08:02:24.432Z, 56.86
2023-05-01T08:03:24.547Z, 56.77
2023-05-01T08:04:24.485Z, 56.71
2023-05-01T08:05:24.304Z, 56.59
2023-05-01T08:06:24.359Z, 56.45
2023-05-01T08:07:24.334Z, 56.37
2023-05-01T08:08:24.427Z, 56.27
2023-05-01T08:09:24.391Z, 56.15
2023-05-01T08:10:24.448Z, 56.02
2023-05-01T08:11:24.420Z, 55.93
2023-05-01T08:12:24.452Z, 55.80
2023-05-01T08:13:24.422Z, 55.67
2023-05-01T08:14:24.471Z, 55.62
2023-05-01T08:15:24.464Z, 55.46
2023-05-01T08:16:24.538Z, 55.36
2023-05-01T08:17:24.573Z, 55.26
2023-05-01T08:18:24.498Z, 55.05
2023-05-01T08:19:24.545Z, 55.00
2023-05-01T08:20:24.537Z, 54.89
2023-05-01T08:21:24.553Z, 54.76
2023-05-01T08:22:24.564Z, 54.62
2023-05-01T08:23:24.537Z, 54.57
2023-05-01T08:24:24.614Z, 54.50
2023-05-01T08:25:24.619Z, 54.42
2023-05-01T08:26:24.636Z, 54.33
2023-05-01T08:27:24.618Z, 54.29
2023-05-01T08:28:24.620Z, 54.19
2023-05-01T08:29:24.627Z, 54.12
2023-05-01T08:30:24.636Z, 54.02
2023-05-01T08:31:24.752Z, 53.93
2023-05-01T08:32:24.745Z, 53.92
2023-05-01T08:33:24.747Z, 53.84
2023-05-01T08:34:24.723Z, 53.71
2023-05-01T08:35:24.711Z, 53.74
2023-05-01T08:36:24.721Z, 53.63
2023-05-01T08:37:24.732Z, 53.62
2023-05-01T08:38:24.747Z, 53.45
2023-05-01T08:39:24.742Z, 53.37
2023-05-01T08:40:24.828Z, 53.32
2023-05-01T08:41:24.836Z, 53.18
2023-05-01T08:42:24.852Z, 53.13
2023-05-01T08:43:24.833Z, 53.09
2023-05-01T08:44:24.878Z, 53.00
2023-05-01T08:45:24.838Z, 52.99
2023-05-01T08:46:24.845Z, 52.92
2023-05-01T08:47:24.898Z, 52.91
2023-05-01T08:48:24.832Z, 52.89
2023-05-01T08:49:24.847Z, 52.81
2023-05-01T08:50:24.868Z, 52.68
2023-05-01T08:51:24.898Z, 52.71
2023-05-01T08:52:24.957Z, 52.73
2023-05-01T08:53:24.951Z, 52.66
2023-05-01T08:54:24.990Z, 52.66
2023-05-01T08:55:24.955Z, 52.60
2023-05-01T08:56:25.005Z, 52.61
2023-05-01T08:57:24.990Z, 52.52
2023-05-01T08:58:24.990Z, 52.44
2023-05-01T08:59:24.999Z, 52.41
2023-05-01T09:00:25.002Z, 52.43
2023-05-01T09:01:25.168Z, 52.32
2023-05-01T09:02:25.087Z, 52.22
2023-05-01T09:03:25.214Z, 52.09
2023-05-01T09:04:25.109Z, 51.99
2023-05-01T09:05:25.094Z, 52.00
2023-05-01T09:06:25.096Z, 51.99
2023-05-01T09:07:25.087Z, 51.94
2023-05-01T09:08:25.099Z, 51.88
2023-05-01T09:09:25.106Z, 51.80
2023-05-01T09:10:25.187Z, 51.77
2023-05-01T09:11:25.171Z, 51.68
2023-05-01T09:12:25.234Z, 51.64
2023-05-01T09:13:25.175Z, 51.62
2023-05-01T09:14:25.234Z, 51.62
2023-05-01T09:15:25.231Z, 51.60
2023-05-01T09:16:25.211Z, 51.49
2023-05-01T09:17:25.271Z, 51.50
2023-05-01T09:18:25.227Z, 51.47
2023-05-01T09:19:25.242Z, 51.45
2023-05-01T09:20:25.266Z, 51.38
2023-05-01T09:21:25.266Z, 51.38
2023-05-01T09:22:25.287Z, 51.30
2023-05-01T09:23:25.288Z, 51.12
2023-05-01T09:24:25.301Z, 51.10
2023-05-01T09:25:25.370Z, 50.99
2023-05-01T09:26:25.358Z, 51.07
2023-05-01T09:27:25.393Z, 50.96
2023-05-01T09:28:25.370Z, 50.91
2023-05-01T09:29:25.369Z, 50.95
2023-05-01T09:30:25.395Z, 50.98
2023-05-01T09:31:25.457Z, 50.92
2023-05-01T09:32:26.341Z, 50.94
2023-05-01T09:33:25.495Z, 50.88
2023-05-01T09:34:25.491Z, 50.81
2023-05-01T09:35:25.483Z, 50.69
2023-05-01T09:36:25.497Z, 50.60
2023-05-01T09:37:25.511Z, 50.65
2023-05-01T09:38:25.506Z, 50.73
2023-05-01T09:39:25.491Z, 50.66
2023-05-01T09:40:25.506Z, 50.58
2023-05-01T09:41:25.527Z, 50.56
2023-05-01T09:42:25.536Z, 50.55
2023-05-01T09:43:25.677Z, 50.53
2023-05-01T09:44:25.620Z, 50.55
2023-05-01T09:45:25.632Z, 50.46
2023-05-01T09:46:25.663Z, 50.46
2023-05-01T09:47:25.748Z, 50.45
2023-05-01T09:48:25.632Z, 50.43
2023-05-01T09:49:25.694Z, 50.33
2023-05-01T09:50:25.686Z, 50.32
2023-05-01T09:51:25.693Z, 50.33
2023-05-01T09:52:25.689Z, 50.25
2023-05-01T09:53:25.730Z, 50.15
2023-05-01T09:54:25.716Z, 50.19
2023-05-01T09:55:26.036Z, 50.20
2023-05-01T09:56:25.711Z, 50.11
2023-05-01T09:57:25.723Z, 50.06
2023-05-01T09:58:25.737Z, 50.08
2023-05-01T09:59:25.744Z, 50.07
2023-05-01T10:00:25.771Z, 50.03
2023-05-01T10:01:25.851Z, 50.84
2023-05-01T10:02:25.902Z, 52.05
2023-05-01T10:03:25.962Z, 52.46
2023-05-01T10:04:25.787Z, 52.56
2023-05-01T10:05:25.814Z, 52.43
2023-05-01T10:06:25.894Z, 52.25
2023-05-01T10:07:25.826Z, 52.12
2023-05-01T10:08:25.892Z, 52.13
2023-05-01T10:09:25.864Z, 52.11
2023-05-01T10:10:25.882Z, 52.03
2023-05-01T10:11:25.900Z, 51.89
2023-05-01T10:12:25.918Z, 51.73
2023-05-01T10:13:25.925Z, 51.48
2023-05-01T10:14:25.926Z, 51.15
2023-05-01T10:15:27.068Z, 50.87
2023-05-01T10:16:26.043Z, 50.53
2023-05-01T10:17:26.077Z, 50.22
2023-05-01T10:18:26.040Z, 49.87
2023-05-01T10:19:26.041Z, 49.50
2023-05-01T10:20:26.038Z, 49.19
2023-05-01T10:21:26.032Z, 48.91
2023-05-01T10:22:26.062Z, 48.71
2023-05-01T10:23:26.058Z, 48.53
2023-05-01T10:24:26.098Z, 48.39
2023-05-01T10:25:26.091Z, 48.23
2023-05-01T10:26:26.109Z, 48.08
2023-05-01T10:27:26.105Z, 48.00
2023-05-01T10:28:26.198Z, 47.92
2023-05-01T10:29:26.175Z, 47.84
2023-05-01T10:30:26.195Z, 47.76
2023-05-01T10:31:26.193Z, 47.64
2023-05-01T10:32:26.218Z, 47.37
2023-05-01T10:33:26.195Z, 47.48
2023-05-01T10:34:28.180Z, 47.43
2023-05-01T10:35:26.198Z, 47.15
2023-05-01T10:36:26.204Z, 46.88
2023-05-01T10:37:26.268Z, 46.67
2023-05-01T10:38:26.285Z, 46.49
2023-05-01T10:39:26.300Z, 46.39
2023-05-01T10:40:26.269Z, 46.28
2023-05-01T10:41:26.294Z, 46.16
2023-05-01T10:42:26.296Z, 46.09
2023-05-01T10:43:26.376Z, 46.04
2023-05-01T10:44:26.344Z, 45.95
2023-05-01T10:45:26.433Z, 45.88
2023-05-01T10:46:26.456Z, 45.76
2023-05-01T10:47:26.517Z, 45.66
2023-05-01T10:48:26.462Z, 45.60
2023-05-01T10:49:26.444Z, 45.53
2023-05-01T10:50:26.447Z, 45.49
2023-05-01T10:51:27.748Z, 45.39
2023-05-01T10:52:26.441Z, 45.37
2023-05-01T10:53:26.442Z, 45.35
2023-05-01T10:54:26.444Z, 45.32
2023-05-01T10:55:26.447Z, 45.25
2023-05-01T10:56:26.531Z, 45.21
2023-05-01T10:57:26.502Z, 45.18
2023-05-01T10:58:26.528Z, 45.15
2023-05-01T10:59:26.498Z, 45.08
2023-05-01T11:00:26.509Z, 45.04
2023-05-01T11:01:26.574Z, 44.99
2023-05-01T11:02:27.040Z, 44.95
2023-05-01T11:03:26.635Z, 44.96
2023-05-01T11:04:26.579Z, 44.94
2023-05-01T11:05:38.186Z, 44.86
2023-05-01T11:06:26.760Z, 44.85
2023-05-01T11:07:26.599Z, 44.81
2023-05-01T11:08:26.616Z, 44.80
2023-05-01T11:09:26.626Z, 44.79
2023-05-01T11:10:26.647Z, 44.73
2023-05-01T11:11:26.643Z, 44.64
2023-05-01T11:12:26.735Z, 44.67
2023-05-01T11:13:26.717Z, 44.71
2023-05-01T11:14:26.712Z, 44.68
2023-05-01T11:15:26.732Z, 44.65
2023-05-01T11:16:26.737Z, 44.58
2023-05-01T11:17:26.775Z, 44.51
2023-05-01T11:18:26.731Z, 44.52
2023-05-01T11:19:29.310Z, 44.51
2023-05-01T11:20:26.821Z, 44.49
2023-05-01T11:21:26.836Z, 44.56
2023-05-01T11:22:26.799Z, 44.53
2023-05-01T11:23:26.812Z, 44.45
2023-05-01T11:24:26.866Z, 44.49
2023-05-01T11:25:26.832Z, 44.48
2023-05-01T11:26:26.884Z, 44.47
2023-05-01T11:27:26.867Z, 44.47
2023-05-01T11:28:26.906Z, 44.44
2023-05-01T11:29:26.883Z, 44.48
2023-05-01T11:30:26.896Z, 44.46
2023-05-01T11:31:26.996Z, 44.40
2023-05-01T11:32:27.172Z, 44.39
2023-05-01T11:33:26.941Z, 44.37
2023-05-01T11:34:26.944Z, 44.40
2023-05-01T11:35:27.022Z, 44.31
2023-05-01T11:36:26.990Z, 44.35
2023-05-01T11:37:26.981Z, 44.31
2023-05-01T11:38:26.981Z, 44.23
2023-05-01T11:39:27.003Z, 44.23
2023-05-01T11:40:27.012Z, 44.23
2023-05-01T11:41:27.017Z, 44.22
2023-05-01T11:42:27.157Z, 44.16
2023-05-01T11:43:27.096Z, 44.21
2023-05-01T11:44:27.111Z, 44.16
2023-05-01T11:45:27.101Z, 44.13
2023-05-01T11:46:27.241Z, 44.14
2023-05-01T11:47:27.178Z, 44.13
2023-05-01T11:48:27.113Z, 44.12
2023-05-01T11:49:27.179Z, 44.13
2023-05-01T11:50:27.144Z, 44.03
2023-05-01T11:51:27.187Z, 44.02
2023-05-01T11:52:27.175Z, 44.07
2023-05-01T11:53:27.229Z, 44.02
2023-05-01T11:54:27.213Z, 43.99
2023-05-01T11:55:27.224Z, 44.04
2023-05-01T11:56:27.658Z, 44.01
2023-05-01T11:57:27.307Z, 43.94
2023-05-01T11:58:27.280Z, 43.93
2023-05-01T11:59:27.278Z, 43.92
2023-05-01T12:00:27.302Z, 43.87
2023-05-01T12:01:27.277Z, 43.88
2023-05-01T12:02:27.510Z, 43.87
2023-05-01T12:03:27.531Z, 43.83
2023-05-01T12:04:30.696Z, 43.84
2023-05-01T12:05:27.323Z, 43.81
2023-05-01T12:06:27.393Z, 43.77
2023-05-01T12:07:27.326Z, 43.77
2023-05-01T12:08:27.403Z, 43.71
2023-05-01T12:09:27.402Z, 43.70
2023-05-01T12:10:27.397Z, 43.70
2023-05-01T12:11:27.416Z, 43.71
2023-05-01T12:12:27.411Z, 43.70
2023-05-01T12:13:27.423Z, 43.64
2023-05-01T12:14:27.409Z, 43.64
2023-05-01T12:15:27.443Z, 43.60
2023-05-01T12:16:27.453Z, 43.57
2023-05-01T12:17:27.510Z, 43.55
2023-05-01T12:18:27.471Z, 43.54
2023-05-01T12:19:27.461Z, 43.55
2023-05-01T12:20:27.496Z, 43.56
2023-05-01T12:21:27.490Z, 43.51
2023-05-01T12:22:27.576Z, 43.48
2023-05-01T12:23:27.555Z, 43.48
2023-05-01T12:24:27.594Z, 43.45
2023-05-01T12:25:27.589Z, 43.40
2023-05-01T12:26:27.586Z, 43.42
2023-05-01T12:27:27.655Z, 43.42
2023-05-01T12:28:27.660Z, 43.42